createdAt,value
2018-03-30T00:00:09.491Z,-0.42
2018-03-30T00:02:37.707Z,-0.23
2018-03-30T00:05:05.923Z,-0.48
2018-03-30T00:07:33.638Z,-0.66
2018-03-30T00:10:01.717Z,-0.11
2018-03-30T00:12:29.641Z,-0.26
2018-03-30T00:14:57.357Z,-0.09
2018-03-30T00:17:25.362Z,-0.39
2018-03-30T00:19:53.201Z,-0.63
2018-03-30T00:22:21.731Z,-0.48
2018-03-30T00:24:49.539Z,-0.90
2018-03-30T00:27:17.692Z,-0.62
2018-03-30T00:29:45.927Z,-0.61
2018-03-30T00:32:13.918Z,-0.76
2018-03-30T00:34:41.732Z,-0.27
2018-03-30T00:37:09.829Z,-0.20
2018-03-30T00:39:37.544Z,-0.59
2018-03-30T00:42:06.252Z,-0.53
2018-03-30T00:44:34.733Z,-0.62
2018-03-30T00:47:02.285Z,-0.36
2018-03-30T00:49:29.972Z,-0.48
2018-03-30T00:51:57.676Z,-0.56
2018-03-30T00:54:25.767Z,-0.20
2018-03-30T00:56:53.448Z,-0.09
2018-03-30T00:59:21.613Z,-0.19
2018-03-30T01:01:49.342Z,-0.11
2018-03-30T01:04:18.086Z,-0.10
2018-03-30T01:06:45.877Z,-0.14
2018-03-30T01:09:13.863Z,-0.11
2018-03-30T01:11:41.627Z,0.01
2018-03-30T01:14:09.687Z,-0.25
2018-03-30T01:16:37.768Z,-0.47
2018-03-30T01:19:05.772Z,-0.87
2018-03-30T01:21:33.513Z,-0.68
2018-03-30T01:24:01.272Z,-0.73
2018-03-30T01:26:28.913Z,-0.88
2018-03-30T01:28:57.978Z,-0.71
2018-03-30T01:31:26.024Z,-0.36
2018-03-30T01:33:54.373Z,-0.75
2018-03-30T01:36:22.651Z,-0.74
2018-03-30T01:38:50.968Z,-0.65
2018-03-30T01:41:19.158Z,-0.52
2018-03-30T01:43:46.936Z,-0.58
2018-03-30T01:46:14.528Z,-0.86
2018-03-30T01:48:43.109Z,-0.91
2018-03-30T01:51:11.432Z,-1.01
2018-03-30T01:53:39.197Z,-0.74
2018-03-30T01:56:07.260Z,-0.77
2018-03-30T01:58:35.562Z,-1.14
2018-03-30T02:01:03.663Z,-1.14
2018-03-30T02:03:32.469Z,-0.84
2018-03-30T02:06:00.859Z,-1.03
2018-03-30T02:08:28.891Z,-1.22
2018-03-30T02:10:57.057Z,-0.99
2018-03-30T02:13:25.243Z,-0.90
2018-03-30T02:15:52.987Z,-0.96
2018-03-30T02:18:20.913Z,-0.90
2018-03-30T02:20:48.750Z,-1.16
2018-03-30T02:23:16.712Z,-1.26
2018-03-30T02:25:44.406Z,-1.08
2018-03-30T02:28:13.064Z,-0.85
2018-03-30T02:30:42.644Z,-0.89
2018-03-30T02:33:11.404Z,-0.98
2018-03-30T02:35:39.240Z,-1.00
2018-03-30T02:38:07.445Z,-1.09
2018-03-30T02:40:36.026Z,-1.28
2018-03-30T02:43:04.115Z,-1.29
2018-03-30T02:45:31.806Z,-0.83
2018-03-30T02:47:59.671Z,-1.59
2018-03-30T02:50:27.721Z,-1.93
2018-03-30T02:52:56.470Z,-1.68
2018-03-30T02:55:24.334Z,-1.55
2018-03-30T02:57:52.795Z,-1.20
2018-03-30T03:00:20.942Z,-0.99
2018-03-30T03:02:48.810Z,-1.18
2018-03-30T03:05:17.105Z,-1.37
2018-03-30T03:07:45.181Z,-1.07
2018-03-30T03:10:12.944Z,-0.96
2018-03-30T03:12:41.874Z,-0.91
2018-03-30T03:15:09.993Z,-1.02
2018-03-30T03:17:37.874Z,-1.27
2018-03-30T03:20:05.423Z,-1.09
2018-03-30T03:22:33.367Z,-1.40
2018-03-30T03:25:01.219Z,-1.89
2018-03-30T03:27:28.924Z,-1.74
2018-03-30T03:29:57.213Z,-1.52
2018-03-30T03:32:25.229Z,-1.67
2018-03-30T03:34:53.203Z,-1.86
2018-03-30T03:37:20.996Z,-1.81
2018-03-30T03:39:49.034Z,-1.85
2018-03-30T03:42:17.789Z,-1.36
2018-03-30T03:44:45.515Z,-1.75
2018-03-30T03:47:13.560Z,-1.62
2018-03-30T03:49:41.280Z,-1.68
2018-03-30T03:52:09.474Z,-1.51
2018-03-30T03:54:37.244Z,-1.60
2018-03-30T03:57:06.058Z,-1.25
2018-03-30T03:59:33.722Z,-1.37
2018-03-30T04:02:02.338Z,-1.34
2018-03-30T04:04:30.397Z,-1.42
2018-03-30T04:06:58.768Z,-1.31
2018-03-30T04:09:26.770Z,-1.48
2018-03-30T04:11:55.595Z,-1.50
2018-03-30T04:14:23.454Z,-1.31
2018-03-30T04:16:51.130Z,-1.21
2018-03-30T04:19:19.079Z,-1.28
2018-03-30T04:21:47.258Z,-1.24
2018-03-30T04:24:15.030Z,-0.99
2018-03-30T04:26:42.744Z,-0.88
2018-03-30T04:29:10.649Z,-1.05
2018-03-30T04:31:38.539Z,-1.14
2018-03-30T04:34:06.688Z,-1.50
2018-03-30T04:36:34.439Z,-1.59
2018-03-30T04:39:02.719Z,-1.55
2018-03-30T04:41:30.993Z,-1.24
2018-03-30T04:43:58.669Z,-0.89
2018-03-30T04:46:27.598Z,-1.10
2018-03-30T04:48:55.245Z,-1.16
2018-03-30T04:51:23.665Z,-1.20
2018-03-30T04:53:51.286Z,-0.93
2018-03-30T04:56:19.161Z,-0.88
2018-03-30T04:58:47.179Z,-0.97
2018-03-30T05:01:16.503Z,-1.00
2018-03-30T05:03:44.349Z,-0.89
2018-03-30T05:06:13.705Z,-0.73
2018-03-30T05:08:41.399Z,-0.85
2018-03-30T05:11:09.662Z,-0.68
2018-03-30T05:13:37.815Z,-0.51
2018-03-30T05:16:05.553Z,-0.40
2018-03-30T05:18:34.223Z,-0.43
2018-03-30T05:21:02.266Z,-0.45
2018-03-30T05:23:30.001Z,-0.68
2018-03-30T05:25:58.125Z,-0.89
2018-03-30T05:28:26.638Z,-0.98
2018-03-30T05:30:54.959Z,-0.89
2018-03-30T05:33:22.880Z,-0.80
2018-03-30T05:35:50.665Z,-0.46
2018-03-30T05:38:19.171Z,-0.17
2018-03-30T05:40:46.953Z,-0.43
2018-03-30T05:43:15.206Z,-0.40
2018-03-30T05:45:42.909Z,-0.23
2018-03-30T05:48:11.156Z,-0.18
2018-03-30T05:50:39.224Z,-0.33
2018-03-30T05:53:07.136Z,0.03
2018-03-30T05:55:35.536Z,0.16
2018-03-30T05:58:03.389Z,0.13
2018-03-30T06:00:31.835Z,0.59
2018-03-30T06:02:59.621Z,0.94
2018-03-30T06:05:27.970Z,1.12
2018-03-30T06:07:55.610Z,1.36
2018-03-30T06:10:23.501Z,1.18
2018-03-30T06:12:51.648Z,1.34
2018-03-30T06:15:19.485Z,1.12
2018-03-30T06:17:47.985Z,0.63
2018-03-30T06:20:15.650Z,0.69
2018-03-30T06:22:43.699Z,0.94
2018-03-30T06:25:12.305Z,1.45
2018-03-30T06:27:40.346Z,1.85
2018-03-30T06:30:09.301Z,2.43
2018-03-30T06:32:37.209Z,2.94
2018-03-30T06:35:05.173Z,3.17
2018-03-30T06:37:33.200Z,3.49
2018-03-30T06:40:01.005Z,3.51
2018-03-30T06:42:29.440Z,3.72
2018-03-30T06:44:57.291Z,3.76
2018-03-30T06:47:25.151Z,3.97
2018-03-30T06:49:53.785Z,4.38
2018-03-30T06:52:21.701Z,4.71
2018-03-30T06:54:49.706Z,5.62
2018-03-30T06:57:17.754Z,5.85
2018-03-30T06:59:45.899Z,6.48
2018-03-30T07:02:13.650Z,6.49
2018-03-30T07:04:42.015Z,6.52
2018-03-30T07:07:10.049Z,6.68
2018-03-30T07:09:38.509Z,7.29
2018-03-30T07:12:06.754Z,7.44
2018-03-30T07:14:34.435Z,8.19
2018-03-30T07:17:02.260Z,8.73
2018-03-30T07:19:30.801Z,8.97
2018-03-30T07:21:58.404Z,9.41
2018-03-30T07:24:26.436Z,9.60
2018-03-30T07:26:54.570Z,9.73
2018-03-30T07:29:23.151Z,9.62
2018-03-30T07:31:51.326Z,10.15
2018-03-30T07:34:18.976Z,9.88
2018-03-30T07:36:46.956Z,9.32
2018-03-30T07:39:14.881Z,10.06
2018-03-30T07:41:46.801Z,10.54
2018-03-30T07:44:14.614Z,10.48
2018-03-30T07:46:42.412Z,9.81
2018-03-30T07:49:10.393Z,8.90
2018-03-30T07:51:38.514Z,9.52
2018-03-30T07:54:06.965Z,9.21
2018-03-30T07:56:34.728Z,10.85
2018-03-30T07:59:02.520Z,11.56
2018-03-30T08:01:30.226Z,10.41
2018-03-30T08:03:58.416Z,9.90
2018-03-30T08:06:26.531Z,10.96
2018-03-30T08:08:54.471Z,10.57
2018-03-30T08:11:23.130Z,10.55
2018-03-30T08:13:51.250Z,11.28
2018-03-30T08:16:19.871Z,12.06
2018-03-30T08:18:48.211Z,12.35
2018-03-30T08:21:16.102Z,11.65
2018-03-30T08:23:43.814Z,11.95
2018-03-30T08:26:11.990Z,12.60
2018-03-30T08:28:39.894Z,12.10
2018-03-30T08:31:08.051Z,13.08
2018-03-30T08:33:35.816Z,13.45
2018-03-30T08:36:04.276Z,12.52
2018-03-30T08:38:32.681Z,13.81
2018-03-30T08:41:00.581Z,13.85
2018-03-30T08:43:29.137Z,13.31
2018-03-30T08:45:56.692Z,15.00
2018-03-30T08:48:24.861Z,15.25
2018-03-30T08:50:52.696Z,14.43
2018-03-30T08:53:20.496Z,15.22
2018-03-30T08:55:48.421Z,14.65
2018-03-30T08:58:16.451Z,14.41
2018-03-30T09:00:44.383Z,14.98
2018-03-30T09:03:12.421Z,15.11
2018-03-30T09:05:41.210Z,15.97
2018-03-30T09:08:09.252Z,14.43
2018-03-30T09:10:37.467Z,14.49
2018-03-30T09:13:05.607Z,16.37
2018-03-30T09:15:34.172Z,16.94
2018-03-30T09:18:02.298Z,17.80
2018-03-30T09:20:30.310Z,17.48
2018-03-30T09:22:58.375Z,16.72
2018-03-30T09:25:26.253Z,17.34
2018-03-30T09:27:54.155Z,19.67
2018-03-30T09:30:22.447Z,20.51
2018-03-30T09:32:50.215Z,21.31
2018-03-30T09:35:18.302Z,23.47
2018-03-30T09:37:46.161Z,21.10
2018-03-30T09:40:14.365Z,23.35
2018-03-30T09:42:42.885Z,23.09
2018-03-30T09:45:10.567Z,21.78
2018-03-30T09:47:38.475Z,23.48
2018-03-30T09:50:06.636Z,24.43
2018-03-30T09:52:34.287Z,23.19
2018-03-30T09:55:01.951Z,23.78
2018-03-30T09:57:30.357Z,25.41
2018-03-30T09:59:58.170Z,22.24
2018-03-30T10:02:29.257Z,23.20
2018-03-30T10:05:01.783Z,23.53
2018-03-30T10:07:29.823Z,23.48
2018-03-30T10:09:58.512Z,22.16
2018-03-30T10:12:26.118Z,21.79
2018-03-30T10:14:54.036Z,19.87
2018-03-30T10:17:22.667Z,21.75
2018-03-30T10:19:50.507Z,21.40
2018-03-30T10:22:18.283Z,22.22
2018-03-30T10:24:46.014Z,23.30
2018-03-30T10:27:13.776Z,24.12
2018-03-30T10:29:41.554Z,21.89
2018-03-30T10:32:09.306Z,22.02
2018-03-30T10:34:37.167Z,22.24
2018-03-30T10:37:04.963Z,21.49
2018-03-30T10:39:33.002Z,22.15
2018-03-30T10:42:00.958Z,23.13
2018-03-30T10:44:29.065Z,20.77
2018-03-30T10:46:56.928Z,23.85
2018-03-30T10:49:24.506Z,23.66
2018-03-30T10:51:52.586Z,24.05
2018-03-30T10:54:20.447Z,23.69
2018-03-30T10:56:49.238Z,23.76
2018-03-30T10:59:17.013Z,22.61
2018-03-30T11:01:45.797Z,22.23
2018-03-30T11:04:13.564Z,23.08
2018-03-30T11:06:41.483Z,22.34
2018-03-30T11:09:09.119Z,23.64
2018-03-30T11:11:37.225Z,22.94
2018-03-30T11:14:04.936Z,23.09
2018-03-30T11:16:32.495Z,21.66
2018-03-30T11:19:00.236Z,22.32
2018-03-30T11:21:27.827Z,22.91
2018-03-30T11:23:55.723Z,22.20
2018-03-30T11:26:23.597Z,21.05
2018-03-30T11:28:51.231Z,20.53
2018-03-30T11:31:19.284Z,20.71
2018-03-30T11:33:47.266Z,19.40
2018-03-30T11:36:14.843Z,19.50
2018-03-30T11:38:42.643Z,19.87
2018-03-30T11:41:10.379Z,18.56
2018-03-30T11:43:38.123Z,18.33
2018-03-30T11:46:05.963Z,18.17
2018-03-30T11:48:33.507Z,17.59
2018-03-30T11:51:01.548Z,17.22
2018-03-30T11:53:30.172Z,17.65
2018-03-30T11:55:58.180Z,17.25
2018-03-30T11:58:26.112Z,16.66
2018-03-30T12:00:54.063Z,16.35
2018-03-30T12:03:22.108Z,16.46
2018-03-30T12:05:49.818Z,16.83
2018-03-30T12:08:18.368Z,16.61
2018-03-30T12:10:46.742Z,17.22
2018-03-30T12:13:14.708Z,16.99
2018-03-30T12:15:42.397Z,17.36
2018-03-30T12:18:10.210Z,16.76
2018-03-30T12:20:37.981Z,16.74
2018-03-30T12:23:06.021Z,16.90
2018-03-30T12:25:34.174Z,17.25
2018-03-30T12:28:02.133Z,16.77
2018-03-30T12:30:29.962Z,17.25
2018-03-30T12:32:58.012Z,17.40
2018-03-30T12:35:25.868Z,16.96
2018-03-30T12:37:53.962Z,16.60
2018-03-30T12:40:21.872Z,16.19
2018-03-30T12:42:49.550Z,16.22
2018-03-30T12:45:17.573Z,16.34
2018-03-30T12:47:45.542Z,16.46
2018-03-30T12:50:13.159Z,17.04
2018-03-30T12:52:41.044Z,16.14
2018-03-30T12:55:09.361Z,16.78
2018-03-30T12:57:36.946Z,17.59
2018-03-30T13:00:04.785Z,18.01
2018-03-30T13:02:32.532Z,17.77
2018-03-30T13:05:00.388Z,17.42
2018-03-30T13:07:28.309Z,16.76
2018-03-30T13:09:56.171Z,16.48
2018-03-30T13:12:24.197Z,16.23
2018-03-30T13:14:51.783Z,15.97
2018-03-30T13:17:19.619Z,15.79
2018-03-30T13:19:47.538Z,15.60
2018-03-30T13:22:15.299Z,17.02
2018-03-30T13:24:42.858Z,16.36
2018-03-30T13:27:10.878Z,15.34
2018-03-30T13:29:39.178Z,15.83
2018-03-30T13:32:07.234Z,17.36
2018-03-30T13:34:35.177Z,19.58
2018-03-30T13:37:03.255Z,17.53
2018-03-30T13:39:31.402Z,17.07
2018-03-30T13:41:58.958Z,18.24
2018-03-30T13:44:26.832Z,18.75
2018-03-30T13:46:54.934Z,18.95
2018-03-30T13:49:22.944Z,18.73
2018-03-30T13:51:56.399Z,17.59
2018-03-30T13:54:24.354Z,17.00
2018-03-30T13:57:08.792Z,16.94
2018-03-30T13:59:38.282Z,17.44
2018-03-30T14:02:13.787Z,18.32
2018-03-30T14:04:46.563Z,18.71
2018-03-30T14:07:24.438Z,19.15
2018-03-30T14:12:58.553Z,18.60
2018-03-30T14:15:28.299Z,18.72
2018-03-30T14:17:57.205Z,18.85
2018-03-30T14:20:27.001Z,19.73
2018-03-30T14:22:55.984Z,19.79
2018-03-30T14:25:23.931Z,20.65
2018-03-30T14:27:52.662Z,20.03
2018-03-30T14:30:24.869Z,18.46
2018-03-30T14:33:01.333Z,17.65
2018-03-30T14:35:39.780Z,17.20
2018-03-30T14:38:08.926Z,16.81
2018-03-30T14:40:37.708Z,16.59
2018-03-30T14:43:15.744Z,16.67
2018-03-30T14:48:51.827Z,15.97
2018-03-30T14:54:30.010Z,16.14
2018-03-30T14:57:04.129Z,16.24
2018-03-30T14:59:35.751Z,16.22
2018-03-30T15:02:16.321Z,16.19
2018-03-30T15:04:45.318Z,16.46
2018-03-30T15:07:16.769Z,16.09
2018-03-30T15:09:45.158Z,15.62
2018-03-30T15:15:32.286Z,15.33
2018-03-30T15:18:05.383Z,15.28
2018-03-30T15:20:35.089Z,15.25
2018-03-30T15:23:16.334Z,15.44
2018-03-30T15:25:47.228Z,15.61
2018-03-30T15:28:15.929Z,15.35
2018-03-30T15:30:44.740Z,15.50
2018-03-30T15:33:25.805Z,15.42
2018-03-30T15:38:53.036Z,15.59
2018-03-30T15:41:20.611Z,15.83
2018-03-30T15:43:48.927Z,15.57
2018-03-30T15:46:19.566Z,15.59
2018-03-30T15:48:47.611Z,15.78
2018-03-30T15:51:19.182Z,15.67
2018-03-30T15:53:46.957Z,15.35
2018-03-30T15:56:18.170Z,15.33
2018-03-30T15:58:45.895Z,15.29
2018-03-30T16:01:14.134Z,15.51
2018-03-30T16:03:42.289Z,15.31
2018-03-30T16:06:11.694Z,15.50
2018-03-30T16:08:39.627Z,15.29
2018-03-30T16:11:12.672Z,15.24
2018-03-30T16:13:40.679Z,15.28
2018-03-30T16:16:08.936Z,15.13
2018-03-30T16:18:48.688Z,15.09
2018-03-30T16:21:16.576Z,15.14
2018-03-30T16:23:44.232Z,15.08
2018-03-30T16:26:11.785Z,15.03
2018-03-30T16:28:39.141Z,15.00
2018-03-30T16:31:06.343Z,14.83
2018-03-30T16:33:33.460Z,14.93
2018-03-30T16:36:00.785Z,14.96
2018-03-30T16:38:29.052Z,14.73
2018-03-30T16:40:56.359Z,14.91
2018-03-30T16:43:24.133Z,14.59
2018-03-30T16:45:51.841Z,14.59
2018-03-30T16:48:19.217Z,14.69
2018-03-30T16:50:46.593Z,14.63
2018-03-30T16:53:13.890Z,14.69
2018-03-30T16:55:41.120Z,14.51
2018-03-30T16:58:08.425Z,14.56
2018-03-30T17:00:35.619Z,14.51
2018-03-30T17:03:02.794Z,14.36
2018-03-30T17:05:30.265Z,13.95
2018-03-30T17:07:57.429Z,13.70
2018-03-30T17:10:24.570Z,13.87
2018-03-30T17:12:51.830Z,14.13
2018-03-30T17:15:19.471Z,13.93
2018-03-30T17:17:46.757Z,13.32
2018-03-30T17:20:14.775Z,12.11
2018-03-30T17:22:42.011Z,11.53
2018-03-30T17:25:09.340Z,11.17
2018-03-30T17:27:36.444Z,10.92
2018-03-30T17:30:03.821Z,10.82
2018-03-30T17:32:30.978Z,10.66
2018-03-30T17:34:59.270Z,10.57
2018-03-30T17:37:26.875Z,10.68
2018-03-30T17:39:54.124Z,10.62
2018-03-30T17:42:21.164Z,10.49
2018-03-30T17:44:48.832Z,10.25
2018-03-30T17:47:16.641Z,10.40
2018-03-30T17:49:44.535Z,10.18
2018-03-30T17:52:11.755Z,10.11
2018-03-30T17:54:38.970Z,10.14
2018-03-30T17:57:06.644Z,10.15
2018-03-30T17:59:34.404Z,9.98
2018-03-30T18:02:01.741Z,10.07
2018-03-30T18:04:29.456Z,9.87
2018-03-30T18:06:56.884Z,9.80
2018-03-30T18:09:23.960Z,9.90
2018-03-30T18:11:51.150Z,9.90
2018-03-30T18:14:18.457Z,9.73
2018-03-30T18:16:45.716Z,9.68
2018-03-30T18:19:13.237Z,9.61
2018-03-30T18:21:40.389Z,9.47
2018-03-30T18:24:07.564Z,9.50
2018-03-30T18:26:35.167Z,9.52
2018-03-30T18:29:02.470Z,9.51
2018-03-30T18:31:30.471Z,9.48
2018-03-30T18:33:57.816Z,9.42
2018-03-30T18:36:25.016Z,9.44
2018-03-30T18:38:52.082Z,9.36
2018-03-30T18:41:20.134Z,9.43
2018-03-30T18:43:47.999Z,9.36
2018-03-30T18:46:15.650Z,9.38
2018-03-30T18:48:43.353Z,9.25
2018-03-30T18:51:11.181Z,9.37
2018-03-30T18:53:38.657Z,9.37
2018-03-30T18:56:06.179Z,9.41
2018-03-30T18:58:33.350Z,9.25
2018-03-30T19:01:00.549Z,9.17
2018-03-30T19:03:27.681Z,9.13
2018-03-30T19:05:55.490Z,9.50
2018-03-30T19:08:22.952Z,9.38
2018-03-30T19:10:50.243Z,9.14
2018-03-30T19:13:18.010Z,9.23
2018-03-30T19:15:45.710Z,9.26
2018-03-30T19:18:13.011Z,9.16
2018-03-30T19:20:40.721Z,9.09
2018-03-30T19:23:08.056Z,8.92
2018-03-30T19:25:35.512Z,8.70
2018-03-30T19:28:02.696Z,8.51
2018-03-30T19:30:30.052Z,8.60
2018-03-30T19:32:57.602Z,8.67
2018-03-30T19:35:25.325Z,8.73
2018-03-30T19:37:52.561Z,8.71
2018-03-30T19:40:20.176Z,8.67
2018-03-30T19:42:47.923Z,8.60
2018-03-30T19:45:16.007Z,8.58
2018-03-30T19:47:43.200Z,8.62
2018-03-30T19:50:10.778Z,8.65
2018-03-30T19:52:38.482Z,8.75
2018-03-30T19:55:07.193Z,8.85
2018-03-30T19:57:34.322Z,8.74
2018-03-30T20:00:01.639Z,8.64
2018-03-30T20:02:30.022Z,8.65
2018-03-30T20:04:57.543Z,9.05
2018-03-30T20:07:24.868Z,8.86
2018-03-30T20:09:53.307Z,8.53
2018-03-30T20:12:21.220Z,8.63
2018-03-30T20:14:48.855Z,8.72
2018-03-30T20:17:16.056Z,8.70
2018-03-30T20:19:43.696Z,8.70
2018-03-30T20:22:11.147Z,8.54
2018-03-30T20:24:38.188Z,8.32
2018-03-30T20:27:05.657Z,8.32
2018-03-30T20:29:33.002Z,8.36
2018-03-30T20:32:00.414Z,8.22
2018-03-30T20:34:27.892Z,8.57
2018-03-30T20:36:55.686Z,8.37
2018-03-30T20:39:23.662Z,8.19
2018-03-30T20:41:52.004Z,8.42
2018-03-30T20:44:19.130Z,8.46
2018-03-30T20:46:46.165Z,8.32
2018-03-30T20:49:13.492Z,8.34
2018-03-30T20:51:40.535Z,8.69
2018-03-30T20:54:07.752Z,8.36
2018-03-30T20:56:34.998Z,8.08
2018-03-30T20:59:02.282Z,8.26
2018-03-30T21:01:29.518Z,8.10
2018-03-30T21:03:56.751Z,8.06
2018-03-30T21:06:23.993Z,8.12
2018-03-30T21:08:51.242Z,8.08
2018-03-30T21:11:18.556Z,8.10
2018-03-30T21:13:45.577Z,8.09
2018-03-30T21:16:12.670Z,8.14
2018-03-30T21:18:39.722Z,8.06
2018-03-30T21:21:06.736Z,7.94
2018-03-30T21:23:33.936Z,7.90
2018-03-30T21:26:01.123Z,8.17
2018-03-30T21:28:28.483Z,8.12
2018-03-30T21:30:56.084Z,7.73
2018-03-30T21:33:23.447Z,7.53
2018-03-30T21:35:50.867Z,7.63
2018-03-30T21:38:18.186Z,7.50
2018-03-30T21:40:45.192Z,7.42
2018-03-30T21:43:12.242Z,7.64
2018-03-30T21:45:39.331Z,7.70
2018-03-30T21:48:06.528Z,7.85
2018-03-30T21:50:33.973Z,7.82
2018-03-30T21:53:01.158Z,7.57
2018-03-30T21:55:28.402Z,7.43
2018-03-30T21:57:55.572Z,7.46
2018-03-30T22:00:22.922Z,7.56
2018-03-30T22:02:50.151Z,7.56
2018-03-30T22:05:17.771Z,7.54
2018-03-30T22:07:44.885Z,7.75
2018-03-30T22:10:12.069Z,7.89
2018-03-30T22:12:39.465Z,7.91
2018-03-30T22:15:06.560Z,7.90
2018-03-30T22:17:34.148Z,8.04
2018-03-30T22:20:01.362Z,8.00
2018-03-30T22:22:28.447Z,7.84
2018-03-30T22:24:55.747Z,7.78
2018-03-30T22:27:22.931Z,7.70
2018-03-30T22:29:50.193Z,7.79
2018-03-30T22:32:17.377Z,7.79
2018-03-30T22:34:44.648Z,7.99
2018-03-30T22:37:13.030Z,8.01
2018-03-30T22:39:40.181Z,8.14
2018-03-30T22:42:07.172Z,7.94
2018-03-30T22:44:34.527Z,7.68
2018-03-30T22:47:01.708Z,7.81
2018-03-30T22:49:29.410Z,7.56
2018-03-30T22:51:56.431Z,7.75
2018-03-30T22:54:23.557Z,7.94
2018-03-30T22:56:50.561Z,7.88
2018-03-30T22:59:17.683Z,8.02
2018-03-30T23:01:44.704Z,7.99
2018-03-30T23:04:11.727Z,8.10
2018-03-30T23:06:38.831Z,8.01
2018-03-30T23:09:06.091Z,8.00
2018-03-30T23:11:33.593Z,7.93
2018-03-30T23:14:00.591Z,7.95
2018-03-30T23:16:27.616Z,7.96
2018-03-30T23:18:54.783Z,7.94
2018-03-30T23:21:21.937Z,7.50
2018-03-30T23:23:49.098Z,7.54
2018-03-30T23:26:16.678Z,7.46
2018-03-30T23:28:43.803Z,7.71
2018-03-30T23:31:10.911Z,7.70
2018-03-30T23:33:38.316Z,7.66
2018-03-30T23:36:05.398Z,7.64
2018-03-30T23:38:32.806Z,7.73
2018-03-30T23:41:00.207Z,7.53
2018-03-30T23:43:27.394Z,7.48
2018-03-30T23:45:54.541Z,7.72
2018-03-30T23:48:21.642Z,7.54
2018-03-30T23:50:49.003Z,7.40
2018-03-30T23:53:16.102Z,7.19
2018-03-30T23:55:43.255Z,7.00
2018-03-30T23:58:10.449Z,7.03
